sensor_id;sensor_type;location;lat;lon;timestamp;P1;durP1;ratioP1;P2;durP2;ratioP2
20236;SDS011;10277;54.386;18.596;2022-10-17T00:00:46;11.73;;;8.97;;
20236;SDS011;10277;54.386;18.596;2022-10-17T00:06:11;12.20;;;9.00;;
20236;SDS011;10277;54.386;18.596;2022-10-17T00:11:17;16.63;;;8.20;;
20236;SDS011;10277;54.386;18.596;2022-10-17T00:16:24;8.17;;;7.33;;
20236;SDS011;10277;54.386;18.596;2022-10-17T00:21:27;9.13;;;7.23;;
20236;SDS011;10277;54.386;18.596;2022-10-17T00:26:30;12.03;;;9.03;;
20236;SDS011;10277;54.386;18.596;2022-10-17T00:31:33;9.83;;;7.97;;
20236;SDS011;10277;54.386;18.596;2022-10-17T00:36:37;11.30;;;8.03;;
20236;SDS011;10277;54.386;18.596;2022-10-17T00:41:39;11.97;;;8.07;;
20236;SDS011;10277;54.386;18.596;2022-10-17T00:46:42;9.00;;;7.67;;
20236;SDS011;10277;54.386;18.596;2022-10-17T00:51:46;9.13;;;8.00;;
20236;SDS011;10277;54.386;18.596;2022-10-17T00:56:52;12.20;;;8.17;;
20236;SDS011;10277;54.386;18.596;2022-10-17T01:01:59;9.53;;;7.73;;
20236;SDS011;10277;54.386;18.596;2022-10-17T01:07:02;8.70;;;7.80;;
20236;SDS011;10277;54.386;18.596;2022-10-17T01:12:06;11.07;;;9.07;;
20236;SDS011;10277;54.386;18.596;2022-10-17T01:22:26;12.20;;;7.87;;
20236;SDS011;10277;54.386;18.596;2022-10-17T01:32:38;8.13;;;7.33;;
20236;SDS011;10277;54.386;18.596;2022-10-17T01:43:04;9.43;;;6.77;;
20236;SDS011;10277;54.386;18.596;2022-10-17T01:48:44;8.13;;;7.07;;
20236;SDS011;10277;54.386;18.596;2022-10-17T01:53:40;9.43;;;7.17;;
20236;SDS011;10277;54.386;18.596;2022-10-17T01:58:48;7.87;;;7.07;;
20236;SDS011;10277;54.386;18.596;2022-10-17T02:03:52;10.00;;;8.02;;
20236;SDS011;10277;54.386;18.596;2022-10-17T02:08:56;10.20;;;7.93;;
20236;SDS011;10277;54.386;18.596;2022-10-17T02:24:34;9.53;;;7.10;;
20236;SDS011;10277;54.386;18.596;2022-10-17T02:29:49;8.60;;;6.95;;
20236;SDS011;10277;54.386;18.596;2022-10-17T02:34:54;9.83;;;7.10;;
20236;SDS011;10277;54.386;18.596;2022-10-17T02:39:58;7.80;;;7.00;;
20236;SDS011;10277;54.386;18.596;2022-10-17T02:45:02;9.00;;;6.68;;
20236;SDS011;10277;54.386;18.596;2022-10-17T02:50:04;10.50;;;7.05;;
20236;SDS011;10277;54.386;18.596;2022-10-17T03:00:21;10.10;;;6.60;;
20236;SDS011;10277;54.386;18.596;2022-10-17T03:05:26;10.60;;;7.10;;
20236;SDS011;10277;54.386;18.596;2022-10-17T03:10:29;9.75;;;6.82;;
20236;SDS011;10277;54.386;18.596;2022-10-17T03:15:32;8.63;;;6.25;;
20236;SDS011;10277;54.386;18.596;2022-10-17T03:20:35;8.52;;;6.68;;
20236;SDS011;10277;54.386;18.596;2022-10-17T03:25:38;7.40;;;6.70;;
20236;SDS011;10277;54.386;18.596;2022-10-17T03:30:41;10.40;;;7.00;;
20236;SDS011;10277;54.386;18.596;2022-10-17T03:35:44;8.53;;;6.90;;
20236;SDS011;10277;54.386;18.596;2022-10-17T03:40:54;10.25;;;6.85;;
20236;SDS011;10277;54.386;18.596;2022-10-17T03:45:57;8.35;;;6.90;;
20236;SDS011;10277;54.386;18.596;2022-10-17T03:51:04;11.07;;;7.45;;
20236;SDS011;10277;54.386;18.596;2022-10-17T03:56:15;10.70;;;7.65;;
20236;SDS011;10277;54.386;18.596;2022-10-17T04:01:22;10.20;;;7.28;;
20236;SDS011;10277;54.386;18.596;2022-10-17T04:06:25;10.17;;;7.10;;
20236;SDS011;10277;54.386;18.596;2022-10-17T04:11:28;11.53;;;7.47;;
20236;SDS011;10277;54.386;18.596;2022-10-17T04:16:34;8.60;;;7.13;;
20236;SDS011;10277;54.386;18.596;2022-10-17T04:21:43;9.35;;;7.38;;
20236;SDS011;10277;54.386;18.596;2022-10-17T04:26:50;10.73;;;6.97;;
20236;SDS011;10277;54.386;18.596;2022-10-17T04:31:55;9.45;;;7.35;;
20236;SDS011;10277;54.386;18.596;2022-10-17T04:37:17;9.57;;;7.00;;
20236;SDS011;10277;54.386;18.596;2022-10-17T04:42:23;10.75;;;7.78;;
20236;SDS011;10277;54.386;18.596;2022-10-17T04:47:27;11.95;;;7.63;;
20236;SDS011;10277;54.386;18.596;2022-10-17T04:52:33;10.43;;;7.90;;
20236;SDS011;10277;54.386;18.596;2022-10-17T04:57:36;13.30;;;8.13;;
20236;SDS011;10277;54.386;18.596;2022-10-17T05:02:54;10.33;;;8.10;;
20236;SDS011;10277;54.386;18.596;2022-10-17T05:07:57;12.23;;;7.50;;
20236;SDS011;10277;54.386;18.596;2022-10-17T05:13:04;13.03;;;8.00;;
20236;SDS011;10277;54.386;18.596;2022-10-17T05:18:08;9.97;;;7.97;;
20236;SDS011;10277;54.386;18.596;2022-10-17T05:23:11;14.10;;;10.17;;
20236;SDS011;10277;54.386;18.596;2022-10-17T05:28:17;13.50;;;9.40;;
20236;SDS011;10277;54.386;18.596;2022-10-17T05:33:21;10.38;;;6.78;;
20236;SDS011;10277;54.386;18.596;2022-10-17T05:38:24;10.75;;;7.65;;
20236;SDS011;10277;54.386;18.596;2022-10-17T05:43:27;12.33;;;7.30;;
20236;SDS011;10277;54.386;18.596;2022-10-17T05:48:30;11.35;;;6.45;;
20236;SDS011;10277;54.386;18.596;2022-10-17T05:53:34;13.35;;;8.50;;
20236;SDS011;10277;54.386;18.596;2022-10-17T05:58:41;12.80;;;7.13;;
20236;SDS011;10277;54.386;18.596;2022-10-17T06:04:13;13.10;;;7.43;;
20236;SDS011;10277;54.386;18.596;2022-10-17T06:09:16;12.52;;;8.50;;
20236;SDS011;10277;54.386;18.596;2022-10-17T06:14:22;14.83;;;8.77;;
20236;SDS011;10277;54.386;18.596;2022-10-17T06:19:28;10.68;;;6.63;;
20236;SDS011;10277;54.386;18.596;2022-10-17T06:24:31;12.52;;;6.57;;
20236;SDS011;10277;54.386;18.596;2022-10-17T06:29:38;19.42;;;7.10;;
20236;SDS011;10277;54.386;18.596;2022-10-17T06:34:41;10.93;;;7.10;;
20236;SDS011;10277;54.386;18.596;2022-10-17T06:39:45;13.90;;;7.22;;
20236;SDS011;10277;54.386;18.596;2022-10-17T06:44:51;10.90;;;6.20;;
20236;SDS011;10277;54.386;18.596;2022-10-17T06:49:56;11.85;;;5.47;;
20236;SDS011;10277;54.386;18.596;2022-10-17T06:55:05;7.72;;;5.10;;
20236;SDS011;10277;54.386;18.596;2022-10-17T07:00:21;12.48;;;6.20;;
20236;SDS011;10277;54.386;18.596;2022-10-17T07:05:28;16.20;;;6.53;;
20236;SDS011;10277;54.386;18.596;2022-10-17T07:10:31;14.77;;;6.40;;
20236;SDS011;10277;54.386;18.596;2022-10-17T07:15:41;14.20;;;8.50;;
20236;SDS011;10277;54.386;18.596;2022-10-17T07:20:51;17.87;;;9.37;;
20236;SDS011;10277;54.386;18.596;2022-10-17T07:26:01;15.83;;;10.07;;
20236;SDS011;10277;54.386;18.596;2022-10-17T07:31:05;18.03;;;9.77;;
20236;SDS011;10277;54.386;18.596;2022-10-17T07:36:08;15.80;;;9.07;;
20236;SDS011;10277;54.386;18.596;2022-10-17T07:41:11;24.33;;;11.00;;
20236;SDS011;10277;54.386;18.596;2022-10-17T07:46:22;19.33;;;11.17;;
20236;SDS011;10277;54.386;18.596;2022-10-17T07:51:25;19.57;;;11.27;;
20236;SDS011;10277;54.386;18.596;2022-10-17T07:56:29;24.20;;;13.17;;
20236;SDS011;10277;54.386;18.596;2022-10-17T08:01:31;21.03;;;11.53;;
20236;SDS011;10277;54.386;18.596;2022-10-17T08:21:42;12.13;;;5.75;;
20236;SDS011;10277;54.386;18.596;2022-10-17T08:26:46;8.43;;;3.10;;
20236;SDS011;10277;54.386;18.596;2022-10-17T08:31:53;10.43;;;5.80;;
20236;SDS011;10277;54.386;18.596;2022-10-17T08:37:02;10.17;;;3.30;;
20236;SDS011;10277;54.386;18.596;2022-10-17T08:47:13;6.13;;;2.80;;
20236;SDS011;10277;54.386;18.596;2022-10-17T08:52:23;8.53;;;2.60;;
20236;SDS011;10277;54.386;18.596;2022-10-17T08:57:27;6.47;;;2.77;;
20236;SDS011;10277;54.386;18.596;2022-10-17T09:18:02;15.33;;;9.00;;
20236;SDS011;10277;54.386;18.596;2022-10-17T09:28:16;10.60;;;3.23;;
20236;SDS011;10277;54.386;18.596;2022-10-17T09:33:24;8.03;;;3.80;;
20236;SDS011;10277;54.386;18.596;2022-10-17T09:38:51;6.17;;;4.00;;
20236;SDS011;10277;54.386;18.596;2022-10-17T09:43:55;5.53;;;3.83;;
20236;SDS011;10277;54.386;18.596;2022-10-17T09:49:09;8.57;;;3.47;;
20236;SDS011;10277;54.386;18.596;2022-10-17T09:54:23;9.57;;;4.37;;
20236;SDS011;10277;54.386;18.596;2022-10-17T09:59:35;10.17;;;4.90;;
20236;SDS011;10277;54.386;18.596;2022-10-17T10:10:07;8.97;;;4.20;;
20236;SDS011;10277;54.386;18.596;2022-10-17T10:15:31;9.53;;;4.90;;
20236;SDS011;10277;54.386;18.596;2022-10-17T10:20:36;11.40;;;4.80;;
20236;SDS011;10277;54.386;18.596;2022-10-17T10:25:53;12.47;;;5.97;;
20236;SDS011;10277;54.386;18.596;2022-10-17T10:30:56;8.87;;;5.60;;
20236;SDS011;10277;54.386;18.596;2022-10-17T10:36:01;16.37;;;13.93;;
20236;SDS011;10277;54.386;18.596;2022-10-17T10:41:06;9.83;;;6.00;;
20236;SDS011;10277;54.386;18.596;2022-10-17T10:51:46;8.27;;;5.87;;
20236;SDS011;10277;54.386;18.596;2022-10-17T10:56:50;9.47;;;6.07;;
20236;SDS011;10277;54.386;18.596;2022-10-17T11:02:02;10.13;;;7.17;;
20236;SDS011;10277;54.386;18.596;2022-10-17T11:07:09;11.63;;;7.00;;
20236;SDS011;10277;54.386;18.596;2022-10-17T11:12:28;8.90;;;6.97;;
20236;SDS011;10277;54.386;18.596;2022-10-17T11:22:47;12.27;;;8.60;;
20236;SDS011;10277;54.386;18.596;2022-10-17T11:27:50;12.63;;;9.37;;
20236;SDS011;10277;54.386;18.596;2022-10-17T11:32:55;13.57;;;7.27;;
20236;SDS011;10277;54.386;18.596;2022-10-17T11:48:30;15.13;;;9.50;;
20236;SDS011;10277;54.386;18.596;2022-10-17T12:25:29;15.23;;;11.53;;
20236;SDS011;10277;54.386;18.596;2022-10-17T12:30:33;13.35;;;11.95;;
20236;SDS011;10277;54.386;18.596;2022-10-17T12:35:36;13.10;;;11.13;;
20236;SDS011;10277;54.386;18.596;2022-10-17T12:51:00;13.43;;;10.10;;
20236;SDS011;10277;54.386;18.596;2022-10-17T13:01:32;13.17;;;9.73;;
20236;SDS011;10277;54.386;18.596;2022-10-17T13:06:37;11.43;;;9.43;;
20236;SDS011;10277;54.386;18.596;2022-10-17T13:11:41;14.30;;;10.37;;
20236;SDS011;10277;54.386;18.596;2022-10-17T13:27:04;14.27;;;12.20;;
20236;SDS011;10277;54.386;18.596;2022-10-17T13:32:08;16.97;;;12.23;;
20236;SDS011;10277;54.386;18.596;2022-10-17T13:37:11;14.10;;;12.60;;
20236;SDS011;10277;54.386;18.596;2022-10-17T13:42:23;14.67;;;11.70;;
20236;SDS011;10277;54.386;18.596;2022-10-17T13:47:27;18.77;;;14.77;;
20236;SDS011;10277;54.386;18.596;2022-10-17T13:57:35;11.43;;;9.67;;
20236;SDS011;10277;54.386;18.596;2022-10-17T14:02:39;11.67;;;9.03;;
20236;SDS011;10277;54.386;18.596;2022-10-17T14:13:06;12.40;;;8.23;;
20236;SDS011;10277;54.386;18.596;2022-10-17T14:18:13;11.70;;;8.93;;
20236;SDS011;10277;54.386;18.596;2022-10-17T14:23:32;18.40;;;11.93;;
20236;SDS011;10277;54.386;18.596;2022-10-17T14:28:35;14.60;;;9.73;;
20236;SDS011;10277;54.386;18.596;2022-10-17T14:33:41;12.07;;;9.77;;
20236;SDS011;10277;54.386;18.596;2022-10-17T14:38:47;14.30;;;10.90;;
20236;SDS011;10277;54.386;18.596;2022-10-17T14:44:04;17.17;;;13.20;;
20236;SDS011;10277;54.386;18.596;2022-10-17T14:49:15;11.43;;;10.23;;
20236;SDS011;10277;54.386;18.596;2022-10-17T14:54:25;13.83;;;10.63;;
20236;SDS011;10277;54.386;18.596;2022-10-17T14:59:30;16.90;;;11.47;;
20236;SDS011;10277;54.386;18.596;2022-10-17T15:04:53;15.60;;;12.03;;
20236;SDS011;10277;54.386;18.596;2022-10-17T15:09:55;23.77;;;17.83;;
20236;SDS011;10277;54.386;18.596;2022-10-17T15:14:58;17.83;;;14.60;;
20236;SDS011;10277;54.386;18.596;2022-10-17T15:20:01;18.00;;;14.00;;
20236;SDS011;10277;54.386;18.596;2022-10-17T15:25:04;22.27;;;18.70;;
20236;SDS011;10277;54.386;18.596;2022-10-17T15:30:13;18.53;;;15.53;;
20236;SDS011;10277;54.386;18.596;2022-10-17T15:35:23;22.00;;;14.73;;
20236;SDS011;10277;54.386;18.596;2022-10-17T15:40:27;20.20;;;15.97;;
20236;SDS011;10277;54.386;18.596;2022-10-17T15:45:30;21.67;;;17.30;;
20236;SDS011;10277;54.386;18.596;2022-10-17T15:50:34;37.67;;;30.37;;
20236;SDS011;10277;54.386;18.596;2022-10-17T15:55:37;19.93;;;13.97;;
20236;SDS011;10277;54.386;18.596;2022-10-17T16:00:40;17.67;;;14.43;;
20236;SDS011;10277;54.386;18.596;2022-10-17T16:05:43;25.53;;;21.47;;
20236;SDS011;10277;54.386;18.596;2022-10-17T16:10:48;19.20;;;15.47;;
20236;SDS011;10277;54.386;18.596;2022-10-17T16:15:51;23.80;;;17.37;;
20236;SDS011;10277;54.386;18.596;2022-10-17T16:20:55;31.63;;;25.67;;
20236;SDS011;10277;54.386;18.596;2022-10-17T16:25:58;24.67;;;18.57;;
20236;SDS011;10277;54.386;18.596;2022-10-17T16:31:01;24.50;;;19.43;;
20236;SDS011;10277;54.386;18.596;2022-10-17T16:36:03;27.00;;;20.43;;
20236;SDS011;10277;54.386;18.596;2022-10-17T16:41:18;27.03;;;21.47;;
20236;SDS011;10277;54.386;18.596;2022-10-17T16:46:22;29.90;;;22.20;;
20236;SDS011;10277;54.386;18.596;2022-10-17T16:51:24;27.30;;;22.33;;
20236;SDS011;10277;54.386;18.596;2022-10-17T16:56:28;34.13;;;24.90;;
20236;SDS011;10277;54.386;18.596;2022-10-17T17:01:33;33.47;;;27.13;;
20236;SDS011;10277;54.386;18.596;2022-10-17T17:06:39;35.53;;;27.10;;
20236;SDS011;10277;54.386;18.596;2022-10-17T17:11:43;29.03;;;24.40;;
20236;SDS011;10277;54.386;18.596;2022-10-17T17:16:46;31.63;;;23.77;;
20236;SDS011;10277;54.386;18.596;2022-10-17T17:21:49;33.73;;;24.70;;
20236;SDS011;10277;54.386;18.596;2022-10-17T17:26:52;34.00;;;24.77;;
20236;SDS011;10277;54.386;18.596;2022-10-17T17:31:55;33.30;;;26.67;;
20236;SDS011;10277;54.386;18.596;2022-10-17T17:36:58;38.57;;;28.47;;
20236;SDS011;10277;54.386;18.596;2022-10-17T17:42:01;48.80;;;35.47;;
20236;SDS011;10277;54.386;18.596;2022-10-17T17:47:04;44.30;;;34.77;;
20236;SDS011;10277;54.386;18.596;2022-10-17T17:52:06;40.57;;;29.80;;
20236;SDS011;10277;54.386;18.596;2022-10-17T17:57:09;39.37;;;31.30;;
20236;SDS011;10277;54.386;18.596;2022-10-17T18:02:15;38.17;;;27.60;;
20236;SDS011;10277;54.386;18.596;2022-10-17T18:07:18;34.53;;;26.03;;
20236;SDS011;10277;54.386;18.596;2022-10-17T18:12:22;43.40;;;29.53;;
20236;SDS011;10277;54.386;18.596;2022-10-17T18:17:24;38.77;;;29.63;;
20236;SDS011;10277;54.386;18.596;2022-10-17T18:22:27;33.27;;;25.03;;
20236;SDS011;10277;54.386;18.596;2022-10-17T18:27:30;30.10;;;24.07;;
20236;SDS011;10277;54.386;18.596;2022-10-17T18:32:33;33.93;;;27.30;;
20236;SDS011;10277;54.386;18.596;2022-10-17T18:37:36;33.13;;;25.37;;
20236;SDS011;10277;54.386;18.596;2022-10-17T18:42:42;33.23;;;24.60;;
20236;SDS011;10277;54.386;18.596;2022-10-17T18:47:46;33.83;;;26.17;;
20236;SDS011;10277;54.386;18.596;2022-10-17T18:52:49;31.93;;;23.70;;
20236;SDS011;10277;54.386;18.596;2022-10-17T18:57:52;29.83;;;23.03;;
20236;SDS011;10277;54.386;18.596;2022-10-17T19:02:55;25.07;;;19.70;;
20236;SDS011;10277;54.386;18.596;2022-10-17T19:07:58;23.23;;;19.63;;
20236;SDS011;10277;54.386;18.596;2022-10-17T19:13:01;21.13;;;17.23;;
20236;SDS011;10277;54.386;18.596;2022-10-17T19:18:04;22.93;;;16.27;;
20236;SDS011;10277;54.386;18.596;2022-10-17T19:23:07;20.07;;;16.87;;
20236;SDS011;10277;54.386;18.596;2022-10-17T19:28:10;22.87;;;16.57;;
20236;SDS011;10277;54.386;18.596;2022-10-17T19:33:16;21.40;;;17.00;;
20236;SDS011;10277;54.386;18.596;2022-10-17T19:38:19;22.40;;;17.53;;
20236;SDS011;10277;54.386;18.596;2022-10-17T19:43:23;26.50;;;17.53;;
20236;SDS011;10277;54.386;18.596;2022-10-17T19:48:29;23.77;;;17.93;;
20236;SDS011;10277;54.386;18.596;2022-10-17T19:53:32;21.73;;;16.53;;
20236;SDS011;10277;54.386;18.596;2022-10-17T19:58:36;20.80;;;15.93;;
20236;SDS011;10277;54.386;18.596;2022-10-17T20:03:47;22.60;;;16.37;;
20236;SDS011;10277;54.386;18.596;2022-10-17T20:08:50;22.57;;;17.23;;
20236;SDS011;10277;54.386;18.596;2022-10-17T20:13:53;23.03;;;16.60;;
20236;SDS011;10277;54.386;18.596;2022-10-17T20:19:00;24.87;;;16.43;;
20236;SDS011;10277;54.386;18.596;2022-10-17T20:24:04;22.67;;;16.20;;
20236;SDS011;10277;54.386;18.596;2022-10-17T20:29:10;24.53;;;15.27;;
20236;SDS011;10277;54.386;18.596;2022-10-17T20:34:14;21.67;;;15.40;;
20236;SDS011;10277;54.386;18.596;2022-10-17T20:39:18;21.23;;;16.10;;
20236;SDS011;10277;54.386;18.596;2022-10-17T20:44:21;18.43;;;14.53;;
20236;SDS011;10277;54.386;18.596;2022-10-17T20:49:24;20.20;;;13.90;;
20236;SDS011;10277;54.386;18.596;2022-10-17T20:54:26;19.97;;;14.07;;
20236;SDS011;10277;54.386;18.596;2022-10-17T20:59:30;17.67;;;14.57;;
20236;SDS011;10277;54.386;18.596;2022-10-17T21:04:32;17.17;;;14.10;;
20236;SDS011;10277;54.386;18.596;2022-10-17T21:09:48;19.47;;;13.60;;
20236;SDS011;10277;54.386;18.596;2022-10-17T21:14:51;19.13;;;13.00;;
20236;SDS011;10277;54.386;18.596;2022-10-17T21:19:53;18.80;;;13.10;;
20236;SDS011;10277;54.386;18.596;2022-10-17T21:24:57;16.20;;;12.90;;
20236;SDS011;10277;54.386;18.596;2022-10-17T21:29:59;16.47;;;13.03;;
20236;SDS011;10277;54.386;18.596;2022-10-17T21:35:02;19.30;;;13.33;;
20236;SDS011;10277;54.386;18.596;2022-10-17T21:40:06;15.73;;;12.33;;
20236;SDS011;10277;54.386;18.596;2022-10-17T21:45:09;20.40;;;12.60;;
20236;SDS011;10277;54.386;18.596;2022-10-17T21:50:21;14.87;;;11.97;;
20236;SDS011;10277;54.386;18.596;2022-10-17T21:55:24;16.30;;;12.13;;
20236;SDS011;10277;54.386;18.596;2022-10-17T22:00:26;15.80;;;12.60;;
20236;SDS011;10277;54.386;18.596;2022-10-17T22:05:29;16.87;;;11.30;;
20236;SDS011;10277;54.386;18.596;2022-10-17T22:10:34;17.90;;;12.07;;
20236;SDS011;10277;54.386;18.596;2022-10-17T22:15:37;14.53;;;11.90;;
20236;SDS011;10277;54.386;18.596;2022-10-17T22:20:39;16.97;;;12.20;;
20236;SDS011;10277;54.386;18.596;2022-10-17T22:25:42;17.47;;;12.17;;
20236;SDS011;10277;54.386;18.596;2022-10-17T22:30:45;14.17;;;11.67;;
20236;SDS011;10277;54.386;18.596;2022-10-17T22:35:48;15.63;;;11.57;;
20236;SDS011;10277;54.386;18.596;2022-10-17T22:40:51;15.97;;;11.83;;
20236;SDS011;10277;54.386;18.596;2022-10-17T22:46:00;13.33;;;10.77;;
20236;SDS011;10277;54.386;18.596;2022-10-17T22:51:03;20.33;;;11.33;;
20236;SDS011;10277;54.386;18.596;2022-10-17T22:56:09;16.33;;;10.77;;
20236;SDS011;10277;54.386;18.596;2022-10-17T23:01:14;13.50;;;11.00;;
20236;SDS011;10277;54.386;18.596;2022-10-17T23:06:17;16.70;;;10.90;;
20236;SDS011;10277;54.386;18.596;2022-10-17T23:11:20;13.30;;;10.20;;
20236;SDS011;10277;54.386;18.596;2022-10-17T23:16:22;13.03;;;9.80;;
20236;SDS011;10277;54.386;18.596;2022-10-17T23:21:25;13.17;;;10.57;;
20236;SDS011;10277;54.386;18.596;2022-10-17T23:26:27;13.43;;;10.20;;
20236;SDS011;10277;54.386;18.596;2022-10-17T23:31:30;14.03;;;10.27;;
20236;SDS011;10277;54.386;18.596;2022-10-17T23:36:33;13.47;;;10.00;;
20236;SDS011;10277;54.386;18.596;2022-10-17T23:41:36;12.27;;;9.87;;
20236;SDS011;10277;54.386;18.596;2022-10-17T23:46:39;18.40;;;8.60;;
20236;SDS011;10277;54.386;18.596;2022-10-17T23:51:42;10.77;;;7.50;;
20236;SDS011;10277;54.386;18.596;2022-10-17T23:56:44;8.53;;;7.47;;
